createdAt,value
2023-01-02T00:00:23.455Z,100853.05
2023-01-02T00:02:54.355Z,100853.56
2023-01-02T00:05:25.254Z,100856.64
2023-01-02T00:07:56.366Z,100856.13
2023-01-02T00:10:28.447Z,100854.23
2023-01-02T00:12:59.266Z,100847.89
2023-01-02T00:15:30.002Z,100841.70
2023-01-02T00:18:00.756Z,100838.80
2023-01-02T00:20:31.439Z,100834.16
2023-01-02T00:23:02.458Z,100830.73
2023-01-02T00:25:34.983Z,100834.67
2023-01-02T00:28:06.203Z,100840.31
2023-01-02T00:30:38.713Z,100843.21
2023-01-02T00:33:09.654Z,100845.28
2023-01-02T00:35:41.071Z,100848.85
2023-01-02T00:38:11.748Z,100846.27
2023-01-02T00:40:42.712Z,100844.05
2023-01-02T00:43:13.982Z,100842.16
2023-01-02T00:45:45.341Z,100845.06
2023-01-02T00:48:16.103Z,100851.55
2023-01-02T00:50:46.953Z,100850.36
2023-01-02T00:53:17.960Z,100849.66
2023-01-02T00:55:49.060Z,100854.28
2023-01-02T00:58:19.752Z,100856.00
2023-01-02T01:00:50.809Z,100851.70
2023-01-02T01:03:21.605Z,100858.55
2023-01-02T01:05:52.293Z,100859.23
2023-01-02T01:08:23.351Z,100858.21
2023-01-02T01:10:54.101Z,100860.25
2023-01-02T01:13:24.752Z,100855.98
2023-01-02T01:15:55.478Z,100851.17
2023-01-02T01:18:26.204Z,100851.84
2023-01-02T01:20:56.866Z,100850.30
2023-01-02T01:23:27.551Z,100848.94
2023-01-02T01:25:58.219Z,100843.82
2023-01-02T01:28:28.857Z,100844.83
2023-01-02T01:31:04.665Z,100838.66
2023-01-02T01:33:35.830Z,100836.27
2023-01-02T01:36:09.393Z,100840.39
2023-01-02T01:38:40.756Z,100839.90
2023-01-02T01:41:13.364Z,100833.73
2023-01-02T01:43:46.578Z,100826.36
2023-01-02T01:46:24.594Z,100828.41
2023-01-02T01:48:59.712Z,100824.80
2023-01-02T01:51:31.015Z,100822.76
2023-01-02T01:54:08.355Z,100820.88
2023-01-02T01:56:44.405Z,100816.45
2023-01-02T01:59:16.183Z,100802.91
2023-01-02T02:01:47.947Z,100801.38
2023-01-02T02:04:21.328Z,100798.31
2023-01-02T02:06:52.891Z,100795.76
2023-01-02T02:09:31.362Z,100807.41
2023-01-02T02:12:02.408Z,100804.16
2023-01-02T02:14:33.866Z,100796.79
2023-01-02T02:17:12.415Z,100793.68
2023-01-02T02:20:22.227Z,100804.97
2023-01-02T02:23:16.826Z,100802.39
2023-01-02T02:26:12.831Z,100807.16
2023-01-02T02:29:05.777Z,100805.63
2023-01-02T02:31:48.823Z,100800.48
2023-01-02T02:34:26.497Z,100797.39
2023-01-02T02:37:03.308Z,100802.54
2023-01-02T02:39:41.008Z,100803.55
2023-01-02T02:42:20.672Z,100798.95
2023-01-02T02:44:58.798Z,100802.55
2023-01-02T02:47:36.847Z,100813.88
2023-01-02T02:50:12.230Z,100815.27
2023-01-02T02:52:48.538Z,100816.15
2023-01-02T02:55:23.972Z,100812.21
2023-01-02T02:57:57.623Z,100809.84
2023-01-02T03:00:28.603Z,100813.27
2023-01-02T03:03:00.306Z,100816.70
2023-01-02T03:05:38.464Z,100813.80
2023-01-02T03:08:17.738Z,100808.50
2023-01-02T03:10:57.853Z,100799.44
2023-01-02T03:13:42.537Z,100797.57
2023-01-02T03:16:20.574Z,100801.02
2023-01-02T03:18:58.842Z,100811.52
2023-01-02T03:21:36.012Z,100815.14
2023-01-02T03:24:09.698Z,100816.16
2023-01-02T03:26:44.434Z,100813.06
2023-01-02T03:29:20.808Z,100808.60
2023-01-02T03:31:55.656Z,100808.76
2023-01-02T03:34:31.506Z,100808.75
2023-01-02T03:37:07.892Z,100806.34
2023-01-02T03:39:44.561Z,100798.29
2023-01-02T03:42:20.494Z,100796.08
2023-01-02T03:44:58.627Z,100804.13
2023-01-02T03:47:33.635Z,100808.91
2023-01-02T03:50:10.258Z,100811.66
2023-01-02T03:52:40.971Z,100812.17
2023-01-02T03:55:12.489Z,100808.23
2023-01-02T03:57:57.693Z,100807.40
2023-01-02T04:00:35.696Z,100806.55
2023-01-02T04:03:11.836Z,100810.68
2023-01-02T04:05:49.050Z,100808.80
2023-01-02T04:08:26.015Z,100810.35
2023-01-02T04:10:59.679Z,100821.99
2023-01-02T04:13:35.626Z,100815.30
2023-01-02T04:16:09.701Z,100816.16
2023-01-02T04:18:46.892Z,100822.82
2023-01-02T04:21:23.202Z,100827.43
2023-01-02T04:23:59.050Z,100829.48
2023-01-02T04:26:33.529Z,100834.45
2023-01-02T04:29:04.684Z,100833.27
2023-01-02T04:31:41.482Z,100831.55
2023-01-02T04:34:16.511Z,100827.77
2023-01-02T04:36:47.653Z,100829.84
2023-01-02T04:39:19.765Z,100824.02
2023-01-02T04:41:50.450Z,100826.27
2023-01-02T04:44:21.159Z,100819.08
2023-01-02T04:46:51.819Z,100810.89
2023-01-02T04:49:26.863Z,100809.23
2023-01-02T04:51:57.545Z,100809.95
2023-01-02T04:54:28.307Z,100808.44
2023-01-02T04:56:58.989Z,100799.40
2023-01-02T04:59:29.636Z,100792.06
2023-01-02T05:02:00.417Z,100782.32
2023-01-02T05:04:31.276Z,100780.11
2023-01-02T05:07:09.942Z,100779.75
2023-01-02T05:09:41.430Z,100782.52
2023-01-02T05:12:12.213Z,100784.05
2023-01-02T05:14:42.880Z,100780.80
2023-01-02T05:17:13.580Z,100775.66
2023-01-02T05:19:44.259Z,100764.56
2023-01-02T05:22:31.805Z,100752.77
2023-01-02T05:25:02.485Z,100747.48
2023-01-02T05:27:33.270Z,100743.56
2023-01-02T05:30:04.453Z,100742.89
2023-01-02T05:32:36.417Z,100743.41
2023-01-02T05:35:08.702Z,100736.42
2023-01-02T05:37:39.520Z,100733.02
2023-01-02T05:40:14.164Z,100731.31
2023-01-02T05:42:46.556Z,100730.81
2023-01-02T05:45:17.580Z,100726.73
2023-01-02T05:47:48.269Z,100721.77
2023-01-02T05:50:19.255Z,100718.70
2023-01-02T05:52:50.464Z,100722.14
2023-01-02T05:55:21.361Z,100722.66
2023-01-02T05:57:56.891Z,100723.18
2023-01-02T06:00:30.023Z,100725.42
2023-01-02T06:03:00.763Z,100721.16
2023-01-02T06:05:31.699Z,100718.95
2023-01-02T06:08:02.433Z,100725.98
2023-01-02T06:10:33.141Z,100729.93
2023-01-02T06:13:03.884Z,100727.40
2023-01-02T06:15:36.385Z,100724.34
2023-01-02T06:18:07.192Z,100726.93
2023-01-02T06:20:38.029Z,100726.78
2023-01-02T06:23:08.702Z,100728.85
2023-01-02T06:25:39.463Z,100726.45
2023-01-02T06:28:10.150Z,100728.16
2023-01-02T06:30:40.984Z,100731.77
2023-01-02T06:33:11.675Z,100730.73
2023-01-02T06:35:42.369Z,100726.80
2023-01-02T06:38:13.147Z,100722.88
2023-01-02T06:40:52.881Z,100718.27
2023-01-02T06:43:24.166Z,100720.15
2023-01-02T06:45:55.196Z,100715.38
2023-01-02T06:48:26.425Z,100711.28
2023-01-02T06:50:58.333Z,100705.65
2023-01-02T06:53:29.556Z,100709.92
2023-01-02T06:56:01.065Z,100713.35
2023-01-02T06:58:34.855Z,100718.48
2023-01-02T07:01:06.935Z,100720.02
2023-01-02T07:03:37.815Z,100722.07
2023-01-02T07:06:11.706Z,100721.55
2023-01-02T07:08:44.070Z,100718.31
2023-01-02T07:11:17.046Z,100721.02
2023-01-02T07:13:49.732Z,100716.09
2023-01-02T07:16:22.387Z,100707.38
2023-01-02T07:18:54.577Z,100705.14
2023-01-02T07:21:25.480Z,100695.77
2023-01-02T07:23:56.204Z,100690.29
2023-01-02T07:26:28.613Z,100691.48
2023-01-02T07:28:59.400Z,100696.08
2023-01-02T07:31:30.494Z,100693.67
2023-01-02T07:34:01.789Z,100694.18
2023-01-02T07:36:32.505Z,100691.44
2023-01-02T07:39:03.291Z,100692.97
2023-01-02T07:41:34.130Z,100687.86
2023-01-02T07:44:10.876Z,100681.35
2023-01-02T07:46:41.875Z,100674.70
2023-01-02T07:49:13.674Z,100674.36
2023-01-02T07:51:44.302Z,100674.89
2023-01-02T07:54:15.055Z,100673.52
2023-01-02T07:56:45.807Z,100669.27
2023-01-02T07:59:16.457Z,100663.63
2023-01-02T08:01:47.233Z,100664.84
2023-01-02T08:04:18.051Z,100668.73
2023-01-02T08:06:49.008Z,100665.17
2023-01-02T08:09:19.809Z,100659.87
2023-01-02T08:11:50.677Z,100662.76
2023-01-02T08:14:23.679Z,100670.09
2023-01-02T08:16:54.643Z,100674.02
2023-01-02T08:19:25.436Z,100674.85
2023-01-02T08:21:56.143Z,100673.80
2023-01-02T08:24:26.984Z,100664.88
2023-01-02T08:26:57.663Z,100668.41
2023-01-02T08:29:28.380Z,100670.92
2023-01-02T08:32:00.625Z,100670.71
2023-01-02T08:34:31.355Z,100673.10
2023-01-02T08:37:02.138Z,100675.30
2023-01-02T08:39:33.130Z,100674.09
2023-01-02T08:42:05.534Z,100677.17
2023-01-02T08:44:38.192Z,100669.13
2023-01-02T08:47:08.970Z,100664.67
2023-01-02T08:49:39.618Z,100661.41
2023-01-02T08:52:10.862Z,100655.23
2023-01-02T08:54:41.638Z,100651.25
2023-01-02T08:57:12.547Z,100650.71
2023-01-02T08:59:43.343Z,100647.80
2023-01-02T09:02:16.650Z,100643.17
2023-01-02T09:04:47.528Z,100642.13
2023-01-02T09:07:18.903Z,100639.01
2023-01-02T09:09:49.932Z,100637.59
2023-01-02T09:12:20.999Z,100635.50
2023-01-02T09:14:52.230Z,100637.66
2023-01-02T09:17:23.081Z,100641.02
2023-01-02T09:19:53.744Z,100634.70
2023-01-02T09:22:24.467Z,100637.26
2023-01-02T09:24:55.144Z,100644.20
2023-01-02T09:27:26.098Z,100649.83
2023-01-02T09:29:56.804Z,100643.25
2023-01-02T09:32:27.530Z,100638.17
2023-01-02T09:34:58.247Z,100627.39
2023-01-02T09:37:29.603Z,100624.37
2023-01-02T09:40:00.304Z,100624.95
2023-01-02T09:42:32.939Z,100623.35
2023-01-02T09:45:09.090Z,100628.20
2023-01-02T09:47:42.693Z,100623.60
2023-01-02T09:50:19.722Z,100627.95
2023-01-02T09:52:55.093Z,100618.98
2023-01-02T09:55:38.888Z,100614.80
2023-01-02T09:58:17.287Z,100608.23
2023-01-02T10:00:51.701Z,100608.30
2023-01-02T10:03:33.679Z,100607.97
2023-01-02T10:06:11.115Z,100602.98
2023-01-02T10:08:51.972Z,100600.55
2023-01-02T10:11:38.435Z,100598.38
2023-01-02T10:14:19.317Z,100594.42
2023-01-02T10:16:55.382Z,100585.95
2023-01-02T10:19:36.999Z,100582.27
2023-01-02T10:22:13.514Z,100584.00
2023-01-02T10:24:48.528Z,100583.55
2023-01-02T10:27:22.336Z,100585.52
2023-01-02T10:30:05.141Z,100589.20
2023-01-02T10:32:38.543Z,100585.77
2023-01-02T10:35:24.479Z,100577.33
2023-01-02T10:37:57.419Z,100573.86
2023-01-02T10:40:28.205Z,100570.91
2023-01-02T10:43:00.585Z,100569.85
2023-01-02T10:45:32.269Z,100564.44
2023-01-02T10:48:03.342Z,100566.35
2023-01-02T10:50:41.325Z,100568.02
2023-01-02T10:53:20.866Z,100562.50
2023-01-02T10:55:52.030Z,100558.48
2023-01-02T10:58:26.771Z,100559.59
2023-01-02T11:01:09.152Z,100558.11
2023-01-02T11:03:40.588Z,100552.01
2023-01-02T11:06:28.223Z,100554.01
2023-01-02T11:09:02.807Z,100551.67
2023-01-02T11:11:34.458Z,100554.38
2023-01-02T11:14:11.574Z,100562.67
2023-01-02T11:16:43.511Z,100562.88
2023-01-02T11:19:29.151Z,100554.98
2023-01-02T11:22:00.528Z,100555.16
2023-01-02T11:24:32.857Z,100555.85
2023-01-02T11:27:05.560Z,100548.47
2023-01-02T11:29:37.625Z,100534.73
2023-01-02T11:32:08.978Z,100538.69
2023-01-02T11:34:54.371Z,100536.30
2023-01-02T11:37:25.512Z,100532.73
2023-01-02T11:40:02.337Z,100528.59
2023-01-02T11:42:57.593Z,100523.07
2023-01-02T11:45:28.974Z,100523.91
2023-01-02T11:48:03.561Z,100520.45
2023-01-02T11:50:38.408Z,100527.81
2023-01-02T11:53:16.413Z,100535.14
2023-01-02T11:55:53.829Z,100525.33
2023-01-02T11:58:34.643Z,100519.30
2023-01-02T12:01:12.893Z,100528.38
2023-01-02T12:03:43.701Z,100531.13
2023-01-02T12:06:21.630Z,100532.86
2023-01-02T12:09:03.714Z,100523.27
2023-01-02T12:11:51.042Z,100511.99
2023-01-02T12:14:25.788Z,100509.33
2023-01-02T12:17:04.131Z,100517.63
2023-01-02T12:19:51.573Z,100521.07
2023-01-02T12:22:40.390Z,100510.76
2023-01-02T12:25:35.876Z,100501.13
2023-01-02T12:28:20.463Z,100493.05
2023-01-02T12:30:58.667Z,100491.80
2023-01-02T12:33:50.209Z,100490.23
2023-01-02T12:36:32.522Z,100488.61
2023-01-02T12:39:33.841Z,100496.65
2023-01-02T12:42:17.673Z,100488.70
2023-01-02T12:44:53.438Z,100488.81
2023-01-02T12:47:38.222Z,100491.36
2023-01-02T12:50:26.349Z,100484.27
2023-01-02T12:53:06.490Z,100480.94
2023-01-02T12:55:51.313Z,100472.02
2023-01-02T12:58:35.221Z,100473.91
2023-01-02T13:01:16.303Z,100470.98
2023-01-02T13:04:17.853Z,100465.64
2023-01-02T13:06:54.605Z,100462.89
2023-01-02T13:09:32.180Z,100465.48
2023-01-02T13:12:10.119Z,100459.66
2023-01-02T13:14:44.316Z,100461.02
2023-01-02T13:17:37.941Z,100464.08
2023-01-02T13:20:16.813Z,100458.74
2023-01-02T13:22:56.185Z,100458.89
2023-01-02T13:25:30.673Z,100452.19
2023-01-02T13:28:06.082Z,100447.67
2023-01-02T13:30:44.330Z,100451.44
2023-01-02T13:33:32.927Z,100448.33
2023-01-02T13:36:17.657Z,100449.33
2023-01-02T13:38:51.667Z,100443.80
2023-01-02T13:41:23.184Z,100446.34
2023-01-02T13:43:57.947Z,100448.71
2023-01-02T13:49:23.475Z,100448.30
2023-01-02T13:52:01.476Z,100449.99
2023-01-02T13:54:39.148Z,100457.19
2023-01-02T13:57:32.097Z,100454.09
2023-01-02T14:00:06.648Z,100460.08
2023-01-02T14:02:44.376Z,100458.71
2023-01-02T14:05:51.398Z,100454.23
2023-01-02T14:08:27.331Z,100447.04
2023-01-02T14:11:01.728Z,100447.56
2023-01-02T14:13:38.735Z,100452.02
2023-01-02T14:16:31.873Z,100452.20
2023-01-02T14:19:19.167Z,100449.45
2023-01-02T14:21:53.625Z,100448.63
2023-01-02T14:24:32.455Z,100443.66
2023-01-02T14:27:06.272Z,100441.79
2023-01-02T14:39:20.988Z,100428.06
2023-01-02T14:54:16.010Z,100432.48
2023-01-02T14:56:48.439Z,100436.75
2023-01-02T14:59:23.671Z,100437.19
2023-01-02T15:01:53.597Z,100425.30
2023-01-02T15:04:27.188Z,100427.00
2023-01-02T15:07:10.178Z,100426.13
2023-01-02T15:09:43.653Z,100440.52
2023-01-02T15:12:41.925Z,100443.05
2023-01-02T15:15:12.129Z,100439.20
2023-01-02T15:17:40.485Z,100436.52
2023-01-02T15:20:17.761Z,100433.34
2023-01-02T15:22:46.379Z,100435.47
2023-01-02T15:25:29.576Z,100435.21
2023-01-02T15:27:57.850Z,100441.65
2023-01-02T15:30:28.291Z,100441.73
2023-01-02T15:32:56.273Z,100449.01
2023-01-02T15:35:26.206Z,100450.45
2023-01-02T15:37:54.125Z,100446.58
2023-01-02T15:40:27.580Z,100454.37
2023-01-02T15:43:17.681Z,100460.13
2023-01-02T15:45:48.246Z,100463.29
2023-01-02T15:48:18.040Z,100464.41
2023-01-02T15:50:48.351Z,100462.23
2023-01-02T15:53:23.560Z,100462.46
2023-01-02T15:55:50.775Z,100466.29
2023-01-02T15:58:25.177Z,100466.67
2023-01-02T16:01:13.106Z,100466.04
2023-01-02T16:04:01.296Z,100458.54
2023-01-02T16:06:34.457Z,100454.80
2023-01-02T16:09:05.284Z,100455.34
2023-01-02T16:11:43.923Z,100453.14
2023-01-02T16:14:20.009Z,100451.43
2023-01-02T16:16:53.820Z,100447.67
2023-01-02T16:19:29.772Z,100441.00
2023-01-02T16:22:04.810Z,100434.52
2023-01-02T16:24:35.579Z,100431.63
2023-01-02T16:27:05.339Z,100431.47
2023-01-02T16:29:33.414Z,100430.27
2023-01-02T16:32:02.195Z,100432.52
2023-01-02T16:34:35.297Z,100434.54
2023-01-02T16:37:28.521Z,100436.05
2023-01-02T16:39:57.020Z,100432.79
2023-01-02T16:42:36.146Z,100429.17
2023-01-02T16:45:06.250Z,100429.01
2023-01-02T16:47:40.267Z,100426.43
2023-01-02T16:50:16.970Z,100424.74
2023-01-02T16:52:45.378Z,100419.62
2023-01-02T16:55:16.427Z,100412.14
2023-01-02T16:57:44.721Z,100411.65
2023-01-02T17:00:15.111Z,100412.72
2023-01-02T17:02:43.184Z,100405.91
2023-01-02T17:05:17.906Z,100413.99
2023-01-02T17:07:46.125Z,100417.43
2023-01-02T17:10:14.218Z,100422.09
2023-01-02T17:12:43.636Z,100424.88
2023-01-02T17:15:14.587Z,100431.77
2023-01-02T17:17:42.722Z,100431.80
2023-01-02T17:20:12.358Z,100425.31
2023-01-02T17:22:40.604Z,100419.52
2023-01-02T17:25:12.460Z,100420.38
2023-01-02T17:27:41.149Z,100421.09
2023-01-02T17:30:12.556Z,100409.78
2023-01-02T17:32:41.248Z,100410.30
2023-01-02T17:35:10.289Z,100408.27
2023-01-02T17:37:38.381Z,100411.88
2023-01-02T17:40:10.884Z,100419.80
2023-01-02T17:42:39.182Z,100416.39
2023-01-02T17:45:09.811Z,100416.63
2023-01-02T17:50:26.128Z,100412.79
2023-01-02T17:52:54.283Z,100400.33
2023-01-02T17:55:22.175Z,100402.74
2023-01-02T17:57:50.218Z,100406.73
2023-01-02T18:00:22.709Z,100409.85
2023-01-02T18:02:52.316Z,100411.23
2023-01-02T18:05:22.237Z,100411.09
2023-01-02T18:07:50.288Z,100417.08
2023-01-02T18:10:20.789Z,100421.03
2023-01-02T18:12:49.893Z,100425.64
2023-01-02T18:15:21.329Z,100422.40
2023-01-02T18:17:49.853Z,100415.38
2023-01-02T18:20:20.111Z,100411.11
2023-01-02T18:22:50.467Z,100414.39
2023-01-02T18:25:23.619Z,100416.63
2023-01-02T18:27:54.956Z,100423.99
2023-01-02T18:30:26.048Z,100418.14
2023-01-02T18:33:06.404Z,100415.91
2023-01-02T18:38:30.726Z,100407.85
2023-01-02T18:40:59.225Z,100405.27
2023-01-02T18:43:31.291Z,100405.09
2023-01-02T18:46:14.578Z,100405.27
2023-01-02T18:48:44.297Z,100405.27
2023-01-02T18:51:17.615Z,100397.88
2023-01-02T18:53:48.104Z,100391.21
2023-01-02T18:56:19.806Z,100391.05
2023-01-02T18:59:01.386Z,100394.48
2023-01-02T19:01:35.380Z,100389.53
2023-01-02T19:04:24.424Z,100393.99
2023-01-02T19:09:40.763Z,100386.52
2023-01-02T19:12:42.476Z,100387.21
2023-01-02T19:15:43.908Z,100394.06
2023-01-02T19:18:34.875Z,100394.25
2023-01-02T19:21:12.955Z,100389.98
2023-01-02T19:23:52.864Z,100386.77
2023-01-02T19:26:26.297Z,100393.82
2023-01-02T19:29:01.492Z,100395.73
2023-01-02T19:31:30.754Z,100392.69
2023-01-02T19:34:02.339Z,100398.36
2023-01-02T19:36:36.704Z,100402.65
2023-01-02T19:39:22.453Z,100398.71
2023-01-02T19:42:10.919Z,100406.23
2023-01-02T19:44:41.001Z,100407.23
2023-01-02T19:47:14.506Z,100415.10
2023-01-02T19:49:49.579Z,100413.02
2023-01-02T19:52:21.244Z,100409.42
2023-01-02T19:55:17.229Z,100406.19
2023-01-02T19:57:44.786Z,100402.25
2023-01-02T20:00:16.633Z,100405.33
2023-01-02T20:02:45.884Z,100409.09
2023-01-02T20:05:21.064Z,100416.27
2023-01-02T20:07:52.363Z,100416.23
2023-01-02T20:10:20.563Z,100417.08
2023-01-02T20:12:48.657Z,100411.23
2023-01-02T20:15:22.717Z,100413.58
2023-01-02T20:17:51.883Z,100418.52
2023-01-02T20:20:22.318Z,100423.13
2023-01-02T20:22:51.875Z,100423.81
2023-01-02T20:25:24.181Z,100429.45
2023-01-02T20:27:55.157Z,100431.35
2023-01-02T20:30:29.734Z,100431.86
2023-01-02T20:32:57.658Z,100427.77
2023-01-02T20:35:28.442Z,100430.86
2023-01-02T20:37:58.626Z,100434.30
2023-01-02T20:40:28.074Z,100435.67
2023-01-02T20:42:56.140Z,100430.36
2023-01-02T20:45:24.076Z,100431.73
2023-01-02T20:47:54.625Z,100436.34
2023-01-02T20:50:23.053Z,100433.27
2023-01-02T20:52:56.497Z,100426.41
2023-01-02T20:55:25.150Z,100425.06
2023-01-02T20:57:53.737Z,100430.39
2023-01-02T21:00:21.927Z,100435.85
2023-01-02T21:02:50.133Z,100436.38
2023-01-02T21:05:19.404Z,100434.33
2023-01-02T21:07:47.447Z,100440.98
2023-01-02T21:10:15.511Z,100443.41
2023-01-02T21:13:02.041Z,100447.53
2023-01-02T21:15:44.190Z,100447.38
2023-01-02T21:18:16.840Z,100449.63
2023-01-02T21:20:47.125Z,100454.10
2023-01-02T21:23:15.813Z,100455.85
2023-01-02T21:25:44.207Z,100454.36
2023-01-02T21:28:13.187Z,100447.20
2023-01-02T21:30:44.796Z,100447.05
2023-01-02T21:33:14.932Z,100449.14
2023-01-02T21:35:45.500Z,100446.59
2023-01-02T21:38:13.884Z,100445.60
2023-01-02T21:40:41.938Z,100446.14
2023-01-02T21:43:10.583Z,100447.19
2023-01-02T21:45:40.008Z,100449.61
2023-01-02T21:48:08.515Z,100448.23
2023-01-02T21:50:36.566Z,100445.50
2023-01-02T21:53:04.649Z,100442.07
2023-01-02T21:55:32.804Z,100446.32
2023-01-02T21:58:16.072Z,100444.94
2023-01-02T22:00:46.758Z,100453.13
2023-01-02T22:03:15.050Z,100451.75
2023-01-02T22:05:43.029Z,100452.60
2023-01-02T22:08:11.013Z,100445.41
2023-01-02T22:10:39.299Z,100445.93
2023-01-02T22:13:07.260Z,100444.39
2023-01-02T22:15:35.350Z,100446.47
2023-01-02T22:18:03.417Z,100452.46
2023-01-02T22:20:31.637Z,100452.29
2023-01-02T22:22:59.597Z,100455.39
2023-01-02T22:25:27.789Z,100460.20
2023-01-02T22:27:55.869Z,100464.48
2023-01-02T22:30:33.137Z,100465.35
2023-01-02T22:33:02.813Z,100466.41
2023-01-02T22:35:30.778Z,100469.17
2023-01-02T22:37:58.726Z,100470.06
2023-01-02T22:40:27.009Z,100474.38
2023-01-02T22:43:04.245Z,100464.32
2023-01-02T22:45:36.655Z,100467.41
2023-01-02T22:48:13.335Z,100472.73
2023-01-02T22:50:44.057Z,100477.90
2023-01-02T22:53:20.473Z,100479.30
2023-01-02T22:55:48.597Z,100482.08
2023-01-02T22:58:17.535Z,100478.31
2023-01-02T23:00:47.078Z,100480.23
2023-01-02T23:03:16.628Z,100479.73
2023-01-02T23:05:44.753Z,100479.76
2023-01-02T23:08:14.510Z,100486.79
2023-01-02T23:10:42.564Z,100486.80
2023-01-02T23:13:10.645Z,100487.00
2023-01-02T23:15:59.435Z,100495.89
2023-01-02T23:18:48.089Z,100497.45
2023-01-02T23:21:21.413Z,100501.55
2023-01-02T23:23:50.432Z,100502.58
2023-01-02T23:26:19.384Z,100503.44
2023-01-02T23:31:38.219Z,100504.80
2023-01-02T23:34:06.573Z,100502.05
2023-01-02T23:36:35.332Z,100501.37
2023-01-02T23:39:04.111Z,100499.66
2023-01-02T23:41:32.207Z,100502.89
2023-01-02T23:44:00.200Z,100506.64
2023-01-02T23:46:28.149Z,100510.58
2023-01-02T23:48:56.173Z,100511.26
2023-01-02T23:51:24.083Z,100513.81
2023-01-02T23:53:51.974Z,100510.57
2023-01-02T23:56:21.651Z,100504.60
2023-01-02T23:58:51.364Z,100504.94
